sensor_id;sensor_type;location;lat;lon;timestamp;P1;durP1;ratioP1;P2;durP2;ratioP2
15402;SDS011;7799;53.478;10.170;2022-11-14T00:01:40;26.53;;;20.13;;
15402;SDS011;7799;53.478;10.170;2022-11-14T00:04:27;25.60;;;20.67;;
15402;SDS011;7799;53.478;10.170;2022-11-14T00:07:12;26.00;;;19.57;;
15402;SDS011;7799;53.478;10.170;2022-11-14T00:09:58;26.83;;;20.77;;
15402;SDS011;7799;53.478;10.170;2022-11-14T00:12:43;23.67;;;18.40;;
15402;SDS011;7799;53.478;10.170;2022-11-14T00:15:28;21.03;;;16.93;;
15402;SDS011;7799;53.478;10.170;2022-11-14T00:18:14;22.90;;;18.03;;
15402;SDS011;7799;53.478;10.170;2022-11-14T00:21:00;27.40;;;20.67;;
15402;SDS011;7799;53.478;10.170;2022-11-14T00:23:45;26.23;;;19.57;;
15402;SDS011;7799;53.478;10.170;2022-11-14T00:26:30;25.37;;;18.97;;
15402;SDS011;7799;53.478;10.170;2022-11-14T00:29:15;23.50;;;18.53;;
15402;SDS011;7799;53.478;10.170;2022-11-14T00:32:01;25.20;;;19.73;;
15402;SDS011;7799;53.478;10.170;2022-11-14T00:34:46;25.00;;;18.83;;
15402;SDS011;7799;53.478;10.170;2022-11-14T00:37:32;23.47;;;18.53;;
15402;SDS011;7799;53.478;10.170;2022-11-14T00:40:17;23.37;;;18.23;;
15402;SDS011;7799;53.478;10.170;2022-11-14T00:43:02;21.27;;;16.50;;
15402;SDS011;7799;53.478;10.170;2022-11-14T00:45:47;26.07;;;19.07;;
15402;SDS011;7799;53.478;10.170;2022-11-14T00:48:32;24.63;;;18.67;;
15402;SDS011;7799;53.478;10.170;2022-11-14T00:51:17;25.23;;;19.53;;
15402;SDS011;7799;53.478;10.170;2022-11-14T00:54:04;23.17;;;18.53;;
15402;SDS011;7799;53.478;10.170;2022-11-14T00:56:49;24.47;;;18.40;;
15402;SDS011;7799;53.478;10.170;2022-11-14T00:59:34;25.83;;;20.30;;
15402;SDS011;7799;53.478;10.170;2022-11-14T01:02:19;26.70;;;20.50;;
15402;SDS011;7799;53.478;10.170;2022-11-14T01:05:04;24.17;;;18.27;;
15402;SDS011;7799;53.478;10.170;2022-11-14T01:07:50;23.67;;;17.73;;
15402;SDS011;7799;53.478;10.170;2022-11-14T01:10:39;25.80;;;20.50;;
15402;SDS011;7799;53.478;10.170;2022-11-14T01:13:24;26.30;;;20.37;;
15402;SDS011;7799;53.478;10.170;2022-11-14T01:16:10;29.07;;;20.90;;
15402;SDS011;7799;53.478;10.170;2022-11-14T01:18:56;25.97;;;19.67;;
15402;SDS011;7799;53.478;10.170;2022-11-14T01:21:41;30.93;;;21.70;;
15402;SDS011;7799;53.478;10.170;2022-11-14T01:24:26;29.07;;;20.83;;
15402;SDS011;7799;53.478;10.170;2022-11-14T01:27:13;25.30;;;18.17;;
15402;SDS011;7799;53.478;10.170;2022-11-14T01:29:58;28.57;;;20.97;;
15402;SDS011;7799;53.478;10.170;2022-11-14T01:32:44;32.33;;;23.93;;
15402;SDS011;7799;53.478;10.170;2022-11-14T01:35:29;29.30;;;23.20;;
15402;SDS011;7799;53.478;10.170;2022-11-14T01:38:14;26.23;;;20.20;;
15402;SDS011;7799;53.478;10.170;2022-11-14T01:41:00;27.83;;;20.57;;
15402;SDS011;7799;53.478;10.170;2022-11-14T01:43:46;27.43;;;20.90;;
15402;SDS011;7799;53.478;10.170;2022-11-14T01:46:32;28.77;;;21.77;;
15402;SDS011;7799;53.478;10.170;2022-11-14T01:49:21;30.43;;;22.70;;
15402;SDS011;7799;53.478;10.170;2022-11-14T01:52:09;30.83;;;20.57;;
15402;SDS011;7799;53.478;10.170;2022-11-14T01:54:57;30.73;;;22.13;;
15402;SDS011;7799;53.478;10.170;2022-11-14T01:57:45;29.33;;;20.70;;
15402;SDS011;7799;53.478;10.170;2022-11-14T02:00:32;25.87;;;20.13;;
15402;SDS011;7799;53.478;10.170;2022-11-14T02:03:17;30.13;;;22.90;;
15402;SDS011;7799;53.478;10.170;2022-11-14T02:06:03;31.30;;;22.73;;
15402;SDS011;7799;53.478;10.170;2022-11-14T02:08:50;29.33;;;21.63;;
15402;SDS011;7799;53.478;10.170;2022-11-14T02:11:36;27.80;;;21.30;;
15402;SDS011;7799;53.478;10.170;2022-11-14T02:14:24;28.87;;;21.97;;
15402;SDS011;7799;53.478;10.170;2022-11-14T02:17:11;29.90;;;20.80;;
15402;SDS011;7799;53.478;10.170;2022-11-14T02:20:04;27.80;;;20.63;;
15402;SDS011;7799;53.478;10.170;2022-11-14T02:22:59;29.77;;;21.97;;
15402;SDS011;7799;53.478;10.170;2022-11-14T02:25:44;27.47;;;20.87;;
15402;SDS011;7799;53.478;10.170;2022-11-14T02:28:29;30.80;;;22.83;;
15402;SDS011;7799;53.478;10.170;2022-11-14T02:31:14;30.53;;;22.47;;
15402;SDS011;7799;53.478;10.170;2022-11-14T02:34:00;31.70;;;23.60;;
15402;SDS011;7799;53.478;10.170;2022-11-14T02:36:47;30.20;;;22.07;;
15402;SDS011;7799;53.478;10.170;2022-11-14T02:39:32;30.43;;;22.80;;
15402;SDS011;7799;53.478;10.170;2022-11-14T02:42:17;27.83;;;20.90;;
15402;SDS011;7799;53.478;10.170;2022-11-14T02:45:02;28.87;;;22.23;;
15402;SDS011;7799;53.478;10.170;2022-11-14T02:47:48;31.63;;;23.17;;
15402;SDS011;7799;53.478;10.170;2022-11-14T02:50:33;30.00;;;22.53;;
15402;SDS011;7799;53.478;10.170;2022-11-14T02:53:20;31.57;;;23.17;;
15402;SDS011;7799;53.478;10.170;2022-11-14T02:56:05;25.73;;;20.67;;
15402;SDS011;7799;53.478;10.170;2022-11-14T02:58:51;25.43;;;20.00;;
15402;SDS011;7799;53.478;10.170;2022-11-14T03:01:36;26.50;;;21.47;;
15402;SDS011;7799;53.478;10.170;2022-11-14T03:04:21;29.60;;;21.20;;
15402;SDS011;7799;53.478;10.170;2022-11-14T03:07:06;26.93;;;20.57;;
15402;SDS011;7799;53.478;10.170;2022-11-14T03:09:53;31.53;;;23.50;;
15402;SDS011;7799;53.478;10.170;2022-11-14T03:12:38;31.50;;;23.43;;
15402;SDS011;7799;53.478;10.170;2022-11-14T03:15:23;31.20;;;23.67;;
15402;SDS011;7799;53.478;10.170;2022-11-14T03:18:08;31.27;;;23.37;;
15402;SDS011;7799;53.478;10.170;2022-11-14T03:20:53;33.97;;;24.97;;
15402;SDS011;7799;53.478;10.170;2022-11-14T03:23:38;29.43;;;22.27;;
15402;SDS011;7799;53.478;10.170;2022-11-14T03:26:25;28.97;;;23.07;;
15402;SDS011;7799;53.478;10.170;2022-11-14T03:29:10;29.67;;;22.13;;
15402;SDS011;7799;53.478;10.170;2022-11-14T03:31:55;32.20;;;23.83;;
15402;SDS011;7799;53.478;10.170;2022-11-14T03:34:40;29.90;;;21.63;;
15402;SDS011;7799;53.478;10.170;2022-11-14T03:37:25;32.20;;;24.07;;
15402;SDS011;7799;53.478;10.170;2022-11-14T03:40:11;28.57;;;22.23;;
15402;SDS011;7799;53.478;10.170;2022-11-14T03:43:01;31.53;;;22.70;;
15402;SDS011;7799;53.478;10.170;2022-11-14T03:45:46;29.20;;;21.80;;
15402;SDS011;7799;53.478;10.170;2022-11-14T03:48:32;30.57;;;22.97;;
15402;SDS011;7799;53.478;10.170;2022-11-14T03:51:19;28.13;;;21.23;;
15402;SDS011;7799;53.478;10.170;2022-11-14T03:54:06;29.03;;;20.90;;
15402;SDS011;7799;53.478;10.170;2022-11-14T03:56:55;27.60;;;19.63;;
15402;SDS011;7799;53.478;10.170;2022-11-14T03:59:42;30.30;;;22.73;;
15402;SDS011;7799;53.478;10.170;2022-11-14T04:02:27;28.30;;;21.20;;
15402;SDS011;7799;53.478;10.170;2022-11-14T04:05:12;30.37;;;22.90;;
15402;SDS011;7799;53.478;10.170;2022-11-14T04:07:57;31.47;;;22.63;;
15402;SDS011;7799;53.478;10.170;2022-11-14T04:10:45;30.03;;;23.13;;
15402;SDS011;7799;53.478;10.170;2022-11-14T04:13:30;31.13;;;23.30;;
15402;SDS011;7799;53.478;10.170;2022-11-14T04:16:17;27.53;;;20.87;;
15402;SDS011;7799;53.478;10.170;2022-11-14T04:19:02;31.13;;;23.53;;
15402;SDS011;7799;53.478;10.170;2022-11-14T04:21:47;29.00;;;21.17;;
15402;SDS011;7799;53.478;10.170;2022-11-14T04:24:32;27.37;;;20.43;;
15402;SDS011;7799;53.478;10.170;2022-11-14T04:27:17;30.17;;;22.27;;
15402;SDS011;7799;53.478;10.170;2022-11-14T04:30:03;27.40;;;20.43;;
15402;SDS011;7799;53.478;10.170;2022-11-14T04:32:50;27.50;;;21.67;;
15402;SDS011;7799;53.478;10.170;2022-11-14T04:35:36;22.87;;;18.77;;
15402;SDS011;7799;53.478;10.170;2022-11-14T04:38:21;32.00;;;22.53;;
15402;SDS011;7799;53.478;10.170;2022-11-14T04:41:06;29.60;;;21.20;;
15402;SDS011;7799;53.478;10.170;2022-11-14T04:43:51;28.33;;;19.97;;
15402;SDS011;7799;53.478;10.170;2022-11-14T04:46:36;29.57;;;21.03;;
15402;SDS011;7799;53.478;10.170;2022-11-14T04:49:23;28.93;;;22.20;;
15402;SDS011;7799;53.478;10.170;2022-11-14T04:52:08;27.43;;;20.63;;
15402;SDS011;7799;53.478;10.170;2022-11-14T04:54:53;26.20;;;18.87;;
15402;SDS011;7799;53.478;10.170;2022-11-14T04:57:39;26.67;;;20.50;;
15402;SDS011;7799;53.478;10.170;2022-11-14T05:00:24;29.67;;;22.40;;
15402;SDS011;7799;53.478;10.170;2022-11-14T05:03:09;32.20;;;22.50;;
15402;SDS011;7799;53.478;10.170;2022-11-14T05:06:00;28.83;;;22.53;;
15402;SDS011;7799;53.478;10.170;2022-11-14T05:08:46;24.63;;;19.10;;
15402;SDS011;7799;53.478;10.170;2022-11-14T05:11:32;28.80;;;21.37;;
15402;SDS011;7799;53.478;10.170;2022-11-14T05:14:17;32.13;;;23.93;;
15402;SDS011;7799;53.478;10.170;2022-11-14T05:17:02;34.30;;;24.80;;
15402;SDS011;7799;53.478;10.170;2022-11-14T05:19:47;31.60;;;23.90;;
15402;SDS011;7799;53.478;10.170;2022-11-14T05:22:34;30.77;;;21.27;;
15402;SDS011;7799;53.478;10.170;2022-11-14T05:25:19;28.73;;;22.13;;
15402;SDS011;7799;53.478;10.170;2022-11-14T05:28:04;32.83;;;24.87;;
15402;SDS011;7799;53.478;10.170;2022-11-14T05:30:50;27.30;;;21.60;;
15402;SDS011;7799;53.478;10.170;2022-11-14T05:33:35;29.43;;;20.33;;
15402;SDS011;7799;53.478;10.170;2022-11-14T05:36:20;29.63;;;21.77;;
15402;SDS011;7799;53.478;10.170;2022-11-14T05:39:07;27.03;;;20.50;;
15402;SDS011;7799;53.478;10.170;2022-11-14T05:41:52;26.17;;;18.77;;
15402;SDS011;7799;53.478;10.170;2022-11-14T05:44:37;27.40;;;19.37;;
15402;SDS011;7799;53.478;10.170;2022-11-14T05:47:23;33.13;;;23.37;;
15402;SDS011;7799;53.478;10.170;2022-11-14T05:50:08;31.27;;;23.23;;
15402;SDS011;7799;53.478;10.170;2022-11-14T05:52:54;32.97;;;23.57;;
15402;SDS011;7799;53.478;10.170;2022-11-14T05:55:41;29.77;;;21.87;;
15402;SDS011;7799;53.478;10.170;2022-11-14T05:58:26;28.33;;;21.63;;
15402;SDS011;7799;53.478;10.170;2022-11-14T06:01:13;29.40;;;21.00;;
15402;SDS011;7799;53.478;10.170;2022-11-14T06:03:59;32.20;;;23.47;;
15402;SDS011;7799;53.478;10.170;2022-11-14T06:06:44;34.93;;;23.53;;
15402;SDS011;7799;53.478;10.170;2022-11-14T06:09:29;28.83;;;22.27;;
15402;SDS011;7799;53.478;10.170;2022-11-14T06:12:15;29.87;;;21.13;;
15402;SDS011;7799;53.478;10.170;2022-11-14T06:15:00;33.10;;;23.13;;
15402;SDS011;7799;53.478;10.170;2022-11-14T06:17:46;32.23;;;22.93;;
15402;SDS011;7799;53.478;10.170;2022-11-14T06:20:31;29.17;;;21.07;;
15402;SDS011;7799;53.478;10.170;2022-11-14T06:23:16;26.33;;;20.47;;
15402;SDS011;7799;53.478;10.170;2022-11-14T06:26:02;28.93;;;20.53;;
15402;SDS011;7799;53.478;10.170;2022-11-14T06:28:51;33.93;;;24.07;;
15402;SDS011;7799;53.478;10.170;2022-11-14T06:31:36;28.37;;;19.07;;
15402;SDS011;7799;53.478;10.170;2022-11-14T06:34:21;28.90;;;21.50;;
15402;SDS011;7799;53.478;10.170;2022-11-14T06:37:06;26.63;;;19.87;;
15402;SDS011;7799;53.478;10.170;2022-11-14T06:39:57;30.63;;;21.37;;
15402;SDS011;7799;53.478;10.170;2022-11-14T06:42:44;26.77;;;20.70;;
15402;SDS011;7799;53.478;10.170;2022-11-14T06:45:30;27.27;;;19.67;;
15402;SDS011;7799;53.478;10.170;2022-11-14T06:48:16;30.17;;;21.13;;
15402;SDS011;7799;53.478;10.170;2022-11-14T06:51:01;33.40;;;23.13;;
15402;SDS011;7799;53.478;10.170;2022-11-14T06:53:47;32.13;;;22.43;;
15402;SDS011;7799;53.478;10.170;2022-11-14T06:56:32;34.43;;;24.17;;
15402;SDS011;7799;53.478;10.170;2022-11-14T06:59:17;36.70;;;26.13;;
15402;SDS011;7799;53.478;10.170;2022-11-14T07:02:04;33.47;;;23.00;;
15402;SDS011;7799;53.478;10.170;2022-11-14T07:04:49;31.80;;;22.40;;
15402;SDS011;7799;53.478;10.170;2022-11-14T07:07:34;33.10;;;22.70;;
15402;SDS011;7799;53.478;10.170;2022-11-14T07:10:19;32.10;;;22.80;;
15402;SDS011;7799;53.478;10.170;2022-11-14T07:13:04;30.47;;;21.50;;
15402;SDS011;7799;53.478;10.170;2022-11-14T07:15:50;33.90;;;23.20;;
15402;SDS011;7799;53.478;10.170;2022-11-14T07:18:36;31.77;;;23.87;;
15402;SDS011;7799;53.478;10.170;2022-11-14T07:21:21;35.10;;;23.03;;
15402;SDS011;7799;53.478;10.170;2022-11-14T07:24:07;36.73;;;24.07;;
15402;SDS011;7799;53.478;10.170;2022-11-14T07:26:52;36.40;;;24.77;;
15402;SDS011;7799;53.478;10.170;2022-11-14T07:29:37;34.70;;;25.10;;
15402;SDS011;7799;53.478;10.170;2022-11-14T07:32:22;42.17;;;26.23;;
15402;SDS011;7799;53.478;10.170;2022-11-14T07:35:09;37.37;;;25.43;;
15402;SDS011;7799;53.478;10.170;2022-11-14T07:37:59;37.63;;;26.57;;
15402;SDS011;7799;53.478;10.170;2022-11-14T07:40:51;37.73;;;24.97;;
15402;SDS011;7799;53.478;10.170;2022-11-14T07:43:37;27.37;;;19.73;;
15402;SDS011;7799;53.478;10.170;2022-11-14T07:46:22;28.23;;;19.27;;
15402;SDS011;7799;53.478;10.170;2022-11-14T07:49:07;36.57;;;24.63;;
15402;SDS011;7799;53.478;10.170;2022-11-14T07:51:54;30.97;;;22.53;;
15402;SDS011;7799;53.478;10.170;2022-11-14T07:54:39;36.80;;;25.77;;
15402;SDS011;7799;53.478;10.170;2022-11-14T07:57:24;35.57;;;23.80;;
15402;SDS011;7799;53.478;10.170;2022-11-14T08:00:10;28.30;;;19.73;;
15402;SDS011;7799;53.478;10.170;2022-11-14T08:02:56;30.97;;;22.50;;
15402;SDS011;7799;53.478;10.170;2022-11-14T08:05:41;33.33;;;22.97;;
15402;SDS011;7799;53.478;10.170;2022-11-14T08:08:28;34.37;;;22.97;;
15402;SDS011;7799;53.478;10.170;2022-11-14T08:11:12;33.50;;;23.07;;
15402;SDS011;7799;53.478;10.170;2022-11-14T08:13:57;31.03;;;21.33;;
15402;SDS011;7799;53.478;10.170;2022-11-14T08:16:43;34.40;;;23.53;;
15402;SDS011;7799;53.478;10.170;2022-11-14T08:19:28;31.17;;;22.00;;
15402;SDS011;7799;53.478;10.170;2022-11-14T08:22:13;36.03;;;24.77;;
15402;SDS011;7799;53.478;10.170;2022-11-14T08:24:59;33.57;;;22.77;;
15402;SDS011;7799;53.478;10.170;2022-11-14T08:27:44;29.93;;;20.90;;
15402;SDS011;7799;53.478;10.170;2022-11-14T08:30:30;24.30;;;18.17;;
15402;SDS011;7799;53.478;10.170;2022-11-14T08:33:15;26.53;;;18.20;;
15402;SDS011;7799;53.478;10.170;2022-11-14T08:36:00;32.00;;;21.70;;
15402;SDS011;7799;53.478;10.170;2022-11-14T08:38:46;32.47;;;21.67;;
15402;SDS011;7799;53.478;10.170;2022-11-14T08:41:33;33.80;;;23.90;;
15402;SDS011;7799;53.478;10.170;2022-11-14T08:44:18;35.40;;;24.33;;
15402;SDS011;7799;53.478;10.170;2022-11-14T08:47:03;32.07;;;22.00;;
15402;SDS011;7799;53.478;10.170;2022-11-14T08:49:49;34.57;;;24.83;;
15402;SDS011;7799;53.478;10.170;2022-11-14T08:52:34;34.53;;;22.80;;
15402;SDS011;7799;53.478;10.170;2022-11-14T08:55:20;36.20;;;24.57;;
15402;SDS011;7799;53.478;10.170;2022-11-14T08:58:06;32.13;;;23.30;;
15402;SDS011;7799;53.478;10.170;2022-11-14T09:00:52;31.60;;;22.67;;
15402;SDS011;7799;53.478;10.170;2022-11-14T09:03:37;31.03;;;21.33;;
15402;SDS011;7799;53.478;10.170;2022-11-14T09:06:22;35.47;;;23.77;;
15402;SDS011;7799;53.478;10.170;2022-11-14T09:09:08;34.23;;;23.33;;
15402;SDS011;7799;53.478;10.170;2022-11-14T09:11:53;34.47;;;24.20;;
15402;SDS011;7799;53.478;10.170;2022-11-14T09:14:40;38.70;;;25.30;;
15402;SDS011;7799;53.478;10.170;2022-11-14T09:17:26;32.13;;;21.83;;
15402;SDS011;7799;53.478;10.170;2022-11-14T09:20:11;36.23;;;22.90;;
15402;SDS011;7799;53.478;10.170;2022-11-14T09:22:57;34.97;;;23.83;;
15402;SDS011;7799;53.478;10.170;2022-11-14T09:25:42;34.43;;;23.43;;
15402;SDS011;7799;53.478;10.170;2022-11-14T09:28:28;32.10;;;22.93;;
15402;SDS011;7799;53.478;10.170;2022-11-14T09:31:14;38.10;;;25.37;;
15402;SDS011;7799;53.478;10.170;2022-11-14T09:33:59;33.10;;;22.70;;
15402;SDS011;7799;53.478;10.170;2022-11-14T09:36:45;35.27;;;23.60;;
15402;SDS011;7799;53.478;10.170;2022-11-14T09:39:30;36.27;;;24.47;;
15402;SDS011;7799;53.478;10.170;2022-11-14T09:42:19;35.37;;;23.07;;
15402;SDS011;7799;53.478;10.170;2022-11-14T09:45:13;32.00;;;21.70;;
15402;SDS011;7799;53.478;10.170;2022-11-14T09:48:02;31.00;;;21.33;;
15402;SDS011;7799;53.478;10.170;2022-11-14T09:50:50;36.57;;;23.93;;
15402;SDS011;7799;53.478;10.170;2022-11-14T09:53:49;31.10;;;22.40;;
15402;SDS011;7799;53.478;10.170;2022-11-14T09:56:38;33.07;;;22.27;;
15402;SDS011;7799;53.478;10.170;2022-11-14T09:59:23;32.53;;;21.77;;
15402;SDS011;7799;53.478;10.170;2022-11-14T10:08:45;35.03;;;23.77;;
15402;SDS011;7799;53.478;10.170;2022-11-14T10:11:34;29.67;;;22.33;;
15402;SDS011;7799;53.478;10.170;2022-11-14T10:17:39;32.73;;;21.97;;
15402;SDS011;7799;53.478;10.170;2022-11-14T10:20:32;32.00;;;22.47;;
15402;SDS011;7799;53.478;10.170;2022-11-14T10:23:23;31.77;;;22.77;;
15402;SDS011;7799;53.478;10.170;2022-11-14T10:26:18;26.43;;;20.40;;
15402;SDS011;7799;53.478;10.170;2022-11-14T10:29:19;31.90;;;22.83;;
15402;SDS011;7799;53.478;10.170;2022-11-14T10:32:23;28.80;;;21.50;;
15402;SDS011;7799;53.478;10.170;2022-11-14T10:35:14;26.83;;;21.73;;
15402;SDS011;7799;53.478;10.170;2022-11-14T10:38:03;30.07;;;21.03;;
15402;SDS011;7799;53.478;10.170;2022-11-14T10:40:51;26.87;;;20.13;;
15402;SDS011;7799;53.478;10.170;2022-11-14T10:43:40;25.20;;;19.63;;
15402;SDS011;7799;53.478;10.170;2022-11-14T10:46:28;33.10;;;23.40;;
15402;SDS011;7799;53.478;10.170;2022-11-14T10:49:17;28.90;;;21.03;;
15402;SDS011;7799;53.478;10.170;2022-11-14T10:52:05;27.30;;;20.87;;
15402;SDS011;7799;53.478;10.170;2022-11-14T10:54:55;31.20;;;22.03;;
15402;SDS011;7799;53.478;10.170;2022-11-14T10:57:44;25.47;;;18.87;;
15402;SDS011;7799;53.478;10.170;2022-11-14T11:00:31;24.60;;;19.03;;
15402;SDS011;7799;53.478;10.170;2022-11-14T11:03:16;28.00;;;21.00;;
15402;SDS011;7799;53.478;10.170;2022-11-14T11:06:02;27.83;;;21.83;;
15402;SDS011;7799;53.478;10.170;2022-11-14T11:08:47;26.80;;;20.80;;
15402;SDS011;7799;53.478;10.170;2022-11-14T11:12:02;26.50;;;20.10;;
15402;SDS011;7799;53.478;10.170;2022-11-14T11:15:06;24.47;;;19.10;;
15402;SDS011;7799;53.478;10.170;2022-11-14T11:17:56;25.47;;;19.90;;
15402;SDS011;7799;53.478;10.170;2022-11-14T11:20:43;20.43;;;16.93;;
15402;SDS011;7799;53.478;10.170;2022-11-14T11:23:28;21.77;;;17.87;;
15402;SDS011;7799;53.478;10.170;2022-11-14T11:26:15;24.13;;;17.67;;
15402;SDS011;7799;53.478;10.170;2022-11-14T11:29:04;24.30;;;19.20;;
15402;SDS011;7799;53.478;10.170;2022-11-14T11:31:52;25.93;;;20.00;;
15402;SDS011;7799;53.478;10.170;2022-11-14T11:34:39;20.60;;;17.33;;
15402;SDS011;7799;53.478;10.170;2022-11-14T11:37:25;19.87;;;16.53;;
15402;SDS011;7799;53.478;10.170;2022-11-14T11:40:14;21.87;;;18.47;;
15402;SDS011;7799;53.478;10.170;2022-11-14T11:43:02;21.10;;;18.10;;
15402;SDS011;7799;53.478;10.170;2022-11-14T11:45:49;24.20;;;19.10;;
15402;SDS011;7799;53.478;10.170;2022-11-14T11:48:43;20.27;;;17.57;;
15402;SDS011;7799;53.478;10.170;2022-11-14T11:51:31;20.67;;;17.77;;
15402;SDS011;7799;53.478;10.170;2022-11-14T11:54:17;19.17;;;16.67;;
15402;SDS011;7799;53.478;10.170;2022-11-14T11:57:06;19.60;;;16.93;;
15402;SDS011;7799;53.478;10.170;2022-11-14T11:59:58;19.57;;;16.33;;
15402;SDS011;7799;53.478;10.170;2022-11-14T12:02:48;22.40;;;18.73;;
15402;SDS011;7799;53.478;10.170;2022-11-14T12:05:37;22.23;;;18.97;;
15402;SDS011;7799;53.478;10.170;2022-11-14T12:08:31;19.70;;;16.63;;
15402;SDS011;7799;53.478;10.170;2022-11-14T12:11:21;23.43;;;19.60;;
15402;SDS011;7799;53.478;10.170;2022-11-14T12:14:23;23.30;;;19.00;;
15402;SDS011;7799;53.478;10.170;2022-11-14T12:17:24;25.33;;;20.23;;
15402;SDS011;7799;53.478;10.170;2022-11-14T12:20:27;22.27;;;18.57;;
15402;SDS011;7799;53.478;10.170;2022-11-14T12:23:26;24.97;;;19.87;;
15402;SDS011;7799;53.478;10.170;2022-11-14T12:26:27;25.07;;;19.20;;
15402;SDS011;7799;53.478;10.170;2022-11-14T12:29:26;23.73;;;19.43;;
15402;SDS011;7799;53.478;10.170;2022-11-14T12:32:25;26.43;;;20.97;;
15402;SDS011;7799;53.478;10.170;2022-11-14T12:35:15;22.23;;;18.43;;
15402;SDS011;7799;53.478;10.170;2022-11-14T12:38:04;21.43;;;17.40;;
15402;SDS011;7799;53.478;10.170;2022-11-14T12:40:59;24.23;;;19.77;;
15402;SDS011;7799;53.478;10.170;2022-11-14T12:43:45;24.83;;;19.73;;
15402;SDS011;7799;53.478;10.170;2022-11-14T12:46:39;22.27;;;17.93;;
15402;SDS011;7799;53.478;10.170;2022-11-14T12:49:58;21.43;;;17.43;;
15402;SDS011;7799;53.478;10.170;2022-11-14T12:52:48;20.33;;;16.80;;
15402;SDS011;7799;53.478;10.170;2022-11-14T12:55:55;24.83;;;18.70;;
15402;SDS011;7799;53.478;10.170;2022-11-14T12:58:56;26.47;;;19.53;;
15402;SDS011;7799;53.478;10.170;2022-11-14T13:01:53;25.00;;;18.23;;
15402;SDS011;7799;53.478;10.170;2022-11-14T13:04:58;30.33;;;20.27;;
15402;SDS011;7799;53.478;10.170;2022-11-14T13:08:00;25.97;;;19.43;;
15402;SDS011;7799;53.478;10.170;2022-11-14T13:10:54;23.93;;;18.70;;
15402;SDS011;7799;53.478;10.170;2022-11-14T13:13:50;26.77;;;19.97;;
15402;SDS011;7799;53.478;10.170;2022-11-14T13:17:04;27.90;;;21.00;;
15402;SDS011;7799;53.478;10.170;2022-11-14T13:20:28;27.13;;;19.27;;
15402;SDS011;7799;53.478;10.170;2022-11-14T13:26:45;24.03;;;18.73;;
15402;SDS011;7799;53.478;10.170;2022-11-14T13:29:46;25.30;;;18.93;;
15402;SDS011;7799;53.478;10.170;2022-11-14T13:32:51;27.20;;;20.13;;
15402;SDS011;7799;53.478;10.170;2022-11-14T13:35:44;29.77;;;22.13;;
15402;SDS011;7799;53.478;10.170;2022-11-14T13:38:49;24.63;;;19.63;;
15402;SDS011;7799;53.478;10.170;2022-11-14T13:45:12;23.87;;;18.40;;
15402;SDS011;7799;53.478;10.170;2022-11-14T13:48:40;26.10;;;19.83;;
15402;SDS011;7799;53.478;10.170;2022-11-14T13:51:37;27.73;;;20.23;;
15402;SDS011;7799;53.478;10.170;2022-11-14T13:54:23;23.37;;;17.93;;
15402;SDS011;7799;53.478;10.170;2022-11-14T13:57:10;27.83;;;19.20;;
15402;SDS011;7799;53.478;10.170;2022-11-14T14:00:00;24.20;;;19.63;;
15402;SDS011;7799;53.478;10.170;2022-11-14T14:03:04;27.33;;;19.87;;
15402;SDS011;7799;53.478;10.170;2022-11-14T14:05:59;26.77;;;18.50;;
15402;SDS011;7799;53.478;10.170;2022-11-14T14:09:03;27.83;;;20.27;;
15402;SDS011;7799;53.478;10.170;2022-11-14T14:12:02;23.77;;;18.20;;
15402;SDS011;7799;53.478;10.170;2022-11-14T14:14:58;22.80;;;17.00;;
15402;SDS011;7799;53.478;10.170;2022-11-14T14:17:51;23.30;;;17.03;;
15402;SDS011;7799;53.478;10.170;2022-11-14T14:20:43;23.13;;;16.80;;
15402;SDS011;7799;53.478;10.170;2022-11-14T14:23:32;27.03;;;19.73;;
15402;SDS011;7799;53.478;10.170;2022-11-14T14:26:22;24.33;;;18.37;;
15402;SDS011;7799;53.478;10.170;2022-11-14T14:29:16;22.40;;;17.13;;
15402;SDS011;7799;53.478;10.170;2022-11-14T14:32:06;21.57;;;15.60;;
15402;SDS011;7799;53.478;10.170;2022-11-14T14:34:55;18.43;;;13.67;;
15402;SDS011;7799;53.478;10.170;2022-11-14T14:37:49;19.30;;;14.33;;
15402;SDS011;7799;53.478;10.170;2022-11-14T14:40:35;18.53;;;13.40;;
15402;SDS011;7799;53.478;10.170;2022-11-14T14:43:23;19.60;;;14.90;;
15402;SDS011;7799;53.478;10.170;2022-11-14T14:46:09;18.23;;;14.67;;
15402;SDS011;7799;53.478;10.170;2022-11-14T14:48:55;17.93;;;13.60;;
15402;SDS011;7799;53.478;10.170;2022-11-14T14:51:42;19.27;;;14.60;;
15402;SDS011;7799;53.478;10.170;2022-11-14T14:54:29;19.60;;;13.87;;
15402;SDS011;7799;53.478;10.170;2022-11-14T14:57:15;19.60;;;14.00;;
15402;SDS011;7799;53.478;10.170;2022-11-14T15:00:03;18.60;;;14.10;;
15402;SDS011;7799;53.478;10.170;2022-11-14T15:02:51;17.03;;;13.27;;
15402;SDS011;7799;53.478;10.170;2022-11-14T15:05:38;18.23;;;14.07;;
15402;SDS011;7799;53.478;10.170;2022-11-14T15:08:24;19.80;;;15.07;;
15402;SDS011;7799;53.478;10.170;2022-11-14T15:11:12;19.30;;;13.00;;
15402;SDS011;7799;53.478;10.170;2022-11-14T15:13:57;22.03;;;16.67;;
15402;SDS011;7799;53.478;10.170;2022-11-14T15:16:44;22.60;;;16.83;;
15402;SDS011;7799;53.478;10.170;2022-11-14T15:19:36;17.97;;;13.80;;
15402;SDS011;7799;53.478;10.170;2022-11-14T15:22:23;22.67;;;16.03;;
15402;SDS011;7799;53.478;10.170;2022-11-14T15:25:17;23.23;;;15.97;;
15402;SDS011;7799;53.478;10.170;2022-11-14T15:28:12;23.90;;;17.80;;
15402;SDS011;7799;53.478;10.170;2022-11-14T15:31:03;24.27;;;17.77;;
15402;SDS011;7799;53.478;10.170;2022-11-14T15:34:01;27.13;;;19.87;;
15402;SDS011;7799;53.478;10.170;2022-11-14T15:37:07;24.37;;;17.97;;
15402;SDS011;7799;53.478;10.170;2022-11-14T15:40:13;28.83;;;19.77;;
15402;SDS011;7799;53.478;10.170;2022-11-14T15:43:00;26.27;;;19.53;;
15402;SDS011;7799;53.478;10.170;2022-11-14T15:46:40;27.80;;;19.10;;
15402;SDS011;7799;53.478;10.170;2022-11-14T15:49:27;25.73;;;17.80;;
15402;SDS011;7799;53.478;10.170;2022-11-14T15:52:16;26.83;;;19.83;;
15402;SDS011;7799;53.478;10.170;2022-11-14T15:55:07;22.47;;;17.17;;
15402;SDS011;7799;53.478;10.170;2022-11-14T15:57:56;25.20;;;17.40;;
15402;SDS011;7799;53.478;10.170;2022-11-14T16:00:43;21.03;;;16.40;;
15402;SDS011;7799;53.478;10.170;2022-11-14T16:03:31;22.27;;;17.70;;
15402;SDS011;7799;53.478;10.170;2022-11-14T16:06:16;22.73;;;17.53;;
15402;SDS011;7799;53.478;10.170;2022-11-14T16:09:02;22.20;;;17.40;;
15402;SDS011;7799;53.478;10.170;2022-11-14T16:11:48;22.90;;;16.40;;
15402;SDS011;7799;53.478;10.170;2022-11-14T16:14:33;25.33;;;18.77;;
15402;SDS011;7799;53.478;10.170;2022-11-14T16:17:20;23.50;;;18.20;;
15402;SDS011;7799;53.478;10.170;2022-11-14T16:20:06;23.87;;;17.47;;
15402;SDS011;7799;53.478;10.170;2022-11-14T16:22:58;20.27;;;15.03;;
15402;SDS011;7799;53.478;10.170;2022-11-14T16:25:44;22.13;;;16.37;;
15402;SDS011;7799;53.478;10.170;2022-11-14T16:28:31;19.33;;;15.57;;
15402;SDS011;7799;53.478;10.170;2022-11-14T16:31:17;20.37;;;15.00;;
15402;SDS011;7799;53.478;10.170;2022-11-14T16:34:04;20.53;;;16.40;;
15402;SDS011;7799;53.478;10.170;2022-11-14T16:36:52;23.30;;;17.10;;
15402;SDS011;7799;53.478;10.170;2022-11-14T16:39:41;24.07;;;17.30;;
15402;SDS011;7799;53.478;10.170;2022-11-14T16:42:26;24.97;;;18.53;;